createdAt,value
2023-12-11T00:03:07.482Z,0.00
2023-12-11T00:08:07.360Z,0.00
2023-12-11T00:13:07.343Z,0.00
2023-12-11T00:18:07.333Z,0.00
2023-12-11T00:23:07.157Z,0.00
2023-12-11T00:28:07.130Z,0.00
2023-12-11T00:33:07.116Z,0.00
2023-12-11T00:38:06.977Z,0.00
2023-12-11T00:43:07.093Z,0.00
2023-12-11T00:48:06.933Z,0.00
2023-12-11T00:53:06.758Z,0.00
2023-12-11T00:58:06.713Z,0.00
2023-12-11T01:03:06.644Z,0.00
2023-12-11T01:08:06.562Z,0.00
2023-12-11T01:13:06.555Z,0.00
2023-12-11T01:18:06.586Z,0.00
2023-12-11T01:23:06.381Z,0.00
2023-12-11T01:28:06.337Z,0.00
2023-12-11T01:33:06.360Z,0.00
2023-12-11T01:38:06.165Z,0.00
2023-12-11T01:43:14.188Z,0.00
2023-12-11T01:48:07.117Z,0.00
2023-12-11T01:53:05.965Z,0.00
2023-12-11T01:58:05.928Z,0.00
2023-12-11T02:03:05.857Z,0.00
2023-12-11T02:08:05.783Z,0.00
2023-12-11T02:13:05.811Z,0.00
2023-12-11T02:18:05.742Z,0.00
2023-12-11T02:23:05.557Z,0.00
2023-12-11T02:28:05.585Z,0.00
2023-12-11T02:33:05.463Z,0.00
2023-12-11T02:38:05.369Z,0.00
2023-12-11T02:43:05.345Z,0.00
2023-12-11T02:48:05.476Z,0.00
2023-12-11T02:53:05.182Z,0.00
2023-12-11T02:58:05.177Z,0.00
2023-12-11T03:03:05.115Z,0.00
2023-12-11T03:08:04.975Z,0.00
2023-12-11T03:13:04.982Z,0.00
2023-12-11T03:18:04.912Z,0.00
2023-12-11T03:23:04.765Z,0.00
2023-12-11T03:28:04.736Z,0.00
2023-12-11T03:33:04.676Z,0.00
2023-12-11T03:38:04.563Z,0.00
2023-12-11T03:43:04.525Z,0.00
2023-12-11T03:48:04.628Z,0.00
2023-12-11T03:53:04.366Z,0.00
2023-12-11T03:58:04.340Z,0.00
2023-12-11T04:03:04.245Z,0.00
2023-12-11T04:08:04.150Z,0.00
2023-12-11T04:13:04.182Z,0.00
2023-12-11T04:18:04.108Z,0.00
2023-12-11T04:23:03.984Z,0.00
2023-12-11T04:28:03.958Z,0.00
2023-12-11T04:33:04.015Z,0.00
2023-12-11T04:38:03.760Z,0.00
2023-12-11T04:43:03.750Z,0.00
2023-12-11T04:48:03.749Z,0.00
2023-12-11T04:53:03.576Z,0.00
2023-12-11T04:58:03.530Z,0.00
2023-12-11T05:03:03.477Z,0.00
2023-12-11T05:08:03.366Z,0.00
2023-12-11T05:13:03.348Z,0.00
2023-12-11T05:18:03.248Z,0.00
2023-12-11T05:23:03.167Z,0.00
2023-12-11T05:28:03.141Z,0.00
2023-12-11T05:33:03.144Z,0.00
2023-12-11T05:38:02.970Z,0.00
2023-12-11T05:43:02.939Z,0.00
2023-12-11T05:48:02.860Z,0.00
2023-12-11T05:53:02.774Z,0.00
2023-12-11T05:58:02.718Z,0.00
2023-12-11T06:03:02.652Z,0.00
2023-12-11T06:08:02.554Z,0.00
2023-12-11T06:13:02.541Z,0.00
2023-12-11T06:18:02.498Z,0.00
2023-12-11T06:23:02.362Z,0.00
2023-12-11T06:28:02.360Z,0.00
2023-12-11T06:33:02.300Z,0.00
2023-12-11T06:38:02.145Z,0.00
2023-12-11T06:43:02.173Z,0.00
2023-12-11T06:48:02.026Z,5.62
2023-12-11T06:53:01.953Z,5.62
2023-12-11T06:58:01.941Z,5.62
2023-12-11T07:03:01.832Z,11.25
2023-12-11T07:08:01.763Z,16.87
2023-12-11T07:13:01.834Z,33.75
2023-12-11T07:18:01.764Z,61.87
2023-12-11T07:23:01.576Z,90.00
2023-12-11T07:28:01.552Z,118.12
2023-12-11T07:33:01.609Z,95.62
2023-12-11T07:38:01.368Z,95.62
2023-12-11T07:43:01.328Z,112.50
2023-12-11T07:48:01.411Z,151.87
2023-12-11T07:53:01.375Z,180.00
2023-12-11T07:58:01.415Z,208.12
2023-12-11T08:03:01.434Z,652.50
2023-12-11T08:08:00.979Z,748.12
2023-12-11T08:13:00.936Z,905.62
2023-12-11T08:18:00.884Z,1338.75
2023-12-11T08:23:00.769Z,1614.37
2023-12-11T08:28:00.758Z,1636.87
2023-12-11T08:33:00.666Z,967.50
2023-12-11T08:38:00.568Z,1968.75
2023-12-11T08:43:00.537Z,1816.87
2023-12-11T08:48:00.573Z,883.12
2023-12-11T08:53:00.360Z,658.12
2023-12-11T08:58:00.384Z,500.62
2023-12-11T09:03:00.265Z,219.37
2023-12-11T09:08:00.202Z,258.75
2023-12-11T09:13:00.171Z,427.50
2023-12-11T09:18:00.134Z,258.75
2023-12-11T09:22:59.994Z,646.87
2023-12-11T09:27:59.911Z,1788.75
2023-12-11T09:32:59.989Z,388.12
2023-12-11T09:37:59.777Z,292.50
2023-12-11T09:42:59.750Z,180.00
2023-12-11T09:48:08.151Z,202.50
2023-12-11T09:53:00.595Z,219.37
2023-12-11T09:57:59.517Z,185.62
2023-12-11T10:02:59.499Z,191.25
2023-12-11T10:07:59.372Z,275.62
2023-12-11T10:12:59.468Z,241.87
2023-12-11T10:17:59.284Z,202.50
2023-12-11T10:23:03.226Z,146.25
2023-12-11T10:27:59.131Z,157.50
2023-12-11T10:32:59.068Z,168.75
2023-12-11T10:37:58.959Z,146.25
2023-12-11T10:42:59.051Z,157.50
2023-12-11T10:47:58.906Z,180.00
2023-12-11T10:52:58.844Z,630.00
2023-12-11T10:57:58.725Z,641.25
2023-12-11T11:02:58.745Z,495.00
2023-12-11T11:07:58.571Z,416.25
2023-12-11T11:12:58.556Z,540.00
2023-12-11T11:17:58.452Z,376.87
2023-12-11T11:22:58.428Z,511.87
2023-12-11T11:27:58.380Z,444.37
2023-12-11T11:32:58.374Z,360.00
2023-12-11T11:37:58.164Z,191.25
2023-12-11T11:42:58.134Z,258.75
2023-12-11T11:47:58.060Z,168.75
2023-12-11T11:52:58.105Z,146.25
2023-12-11T11:57:57.914Z,185.62
2023-12-11T12:02:57.833Z,208.12
2023-12-11T12:07:57.779Z,135.00
2023-12-11T12:12:57.723Z,112.50
2023-12-11T12:17:57.638Z,106.87
2023-12-11T12:22:57.577Z,101.25
2023-12-11T12:27:57.508Z,84.37
2023-12-11T12:32:57.476Z,73.12
2023-12-11T12:37:57.358Z,67.50
2023-12-11T12:42:57.300Z,123.75
2023-12-11T12:47:57.297Z,90.00
2023-12-11T12:52:57.157Z,101.25
2023-12-11T12:57:57.108Z,90.00
2023-12-11T13:02:57.025Z,106.87
2023-12-11T13:07:56.957Z,106.87
2023-12-11T13:12:56.911Z,61.87
2023-12-11T13:17:56.845Z,90.00
2023-12-11T13:22:56.770Z,73.12
2023-12-11T13:27:56.709Z,84.37
2023-12-11T13:32:56.658Z,78.75
2023-12-11T13:37:56.550Z,61.87
2023-12-11T13:42:56.612Z,61.87
2023-12-11T13:47:56.438Z,67.50
2023-12-11T13:52:56.385Z,56.25
2023-12-11T13:57:56.311Z,56.25
2023-12-11T14:03:01.535Z,56.25
2023-12-11T14:07:56.158Z,50.62
2023-12-11T14:12:56.157Z,56.25
2023-12-11T14:17:56.096Z,50.62
2023-12-11T14:22:55.975Z,45.00
2023-12-11T14:27:55.912Z,45.00
2023-12-11T14:32:55.936Z,22.50
2023-12-11T14:37:55.751Z,22.50
2023-12-11T14:42:55.745Z,16.87
2023-12-11T14:47:55.665Z,16.87
2023-12-11T14:52:55.577Z,11.25
2023-12-11T14:57:55.518Z,16.87
2023-12-11T15:02:55.487Z,11.25
2023-12-11T15:07:55.362Z,5.62
2023-12-11T15:12:55.317Z,0.00
2023-12-11T15:17:55.315Z,0.00
2023-12-11T15:22:55.175Z,0.00
2023-12-11T15:27:55.101Z,0.00
2023-12-11T15:32:55.103Z,0.00
2023-12-11T15:37:54.966Z,0.00
2023-12-11T15:42:54.916Z,0.00
2023-12-11T15:48:01.390Z,0.00
2023-12-11T15:52:54.796Z,0.00
2023-12-11T15:57:54.979Z,0.00
2023-12-11T16:02:54.695Z,0.00
2023-12-11T16:07:54.568Z,0.00
2023-12-11T16:12:54.497Z,0.00
2023-12-11T16:17:54.541Z,0.00
2023-12-11T16:22:54.364Z,0.00
2023-12-11T16:27:54.492Z,0.00
2023-12-11T16:32:54.401Z,0.00
2023-12-11T16:37:54.163Z,0.00
2023-12-11T16:42:54.113Z,0.00
2023-12-11T16:47:54.098Z,0.00
2023-12-11T16:52:53.953Z,0.00
2023-12-11T16:57:54.082Z,0.00
2023-12-11T17:02:53.816Z,0.00
2023-12-11T17:07:53.804Z,0.00
2023-12-11T17:12:53.725Z,0.00
2023-12-11T17:17:53.833Z,0.00
2023-12-11T17:22:53.556Z,0.00
2023-12-11T17:27:53.531Z,0.00
2023-12-11T17:32:53.442Z,0.00
2023-12-11T17:37:53.349Z,0.00
2023-12-11T17:42:53.327Z,0.00
2023-12-11T17:47:53.284Z,0.00
2023-12-11T17:52:53.149Z,0.00
2023-12-11T17:57:53.116Z,0.00
2023-12-11T18:02:53.020Z,0.00
2023-12-11T18:07:52.978Z,0.00
2023-12-11T18:12:52.907Z,0.00
2023-12-11T18:17:52.890Z,0.00
2023-12-11T18:22:52.742Z,0.00
2023-12-11T18:27:52.716Z,0.00
2023-12-11T18:32:52.699Z,0.00
2023-12-11T18:37:52.537Z,0.00
2023-12-11T18:42:52.512Z,0.00
2023-12-11T18:47:52.486Z,0.00
2023-12-11T18:52:54.045Z,0.00
2023-12-11T18:57:52.386Z,0.00
2023-12-11T19:02:52.343Z,0.00
2023-12-11T19:07:52.138Z,0.00
2023-12-11T19:12:52.077Z,0.00
2023-12-11T19:17:52.111Z,0.00
2023-12-11T19:22:51.933Z,0.00
2023-12-11T19:27:51.940Z,0.00
2023-12-11T19:32:51.954Z,0.00
2023-12-11T19:37:51.743Z,0.00
2023-12-11T19:42:51.701Z,0.00
2023-12-11T19:47:51.687Z,0.00
2023-12-11T19:52:52.018Z,0.00
2023-12-11T19:57:51.505Z,0.00
2023-12-11T20:02:51.488Z,0.00
2023-12-11T20:07:51.352Z,0.00
2023-12-11T20:12:51.339Z,0.00
2023-12-11T20:17:51.269Z,0.00
2023-12-11T20:22:51.150Z,0.00
2023-12-11T20:27:51.157Z,0.00
2023-12-11T20:32:51.118Z,0.00
2023-12-11T20:37:50.949Z,0.00
2023-12-11T20:42:50.905Z,0.00
2023-12-11T20:47:50.868Z,0.00
2023-12-11T20:52:50.747Z,0.00
2023-12-11T20:57:50.699Z,0.00
2023-12-11T21:02:50.612Z,0.00
2023-12-11T21:07:50.566Z,0.00
2023-12-11T21:12:50.484Z,0.00
2023-12-11T21:17:50.476Z,0.00
2023-12-11T21:22:50.334Z,0.00
2023-12-11T21:27:50.294Z,0.00
2023-12-11T21:32:50.270Z,0.00
2023-12-11T21:37:50.154Z,0.00
2023-12-11T21:42:50.090Z,0.00
2023-12-11T21:47:50.084Z,0.00
2023-12-11T21:52:49.970Z,0.00
2023-12-11T21:57:49.917Z,0.00
2023-12-11T22:02:49.835Z,0.00
2023-12-11T22:07:49.754Z,0.00
2023-12-11T22:12:49.702Z,0.00
2023-12-11T22:17:49.663Z,0.00
2023-12-11T22:22:49.548Z,0.00
2023-12-11T22:27:49.511Z,0.00
2023-12-11T22:32:49.457Z,0.00
2023-12-11T22:37:49.349Z,0.00
2023-12-11T22:42:49.354Z,0.00
2023-12-11T22:47:49.302Z,0.00
2023-12-11T22:52:49.138Z,0.00
2023-12-11T22:57:52.013Z,0.00
2023-12-11T23:02:49.008Z,0.00
2023-12-11T23:07:48.965Z,0.00
2023-12-11T23:12:48.939Z,0.00
2023-12-11T23:17:48.954Z,0.00
2023-12-11T23:22:48.794Z,0.00
2023-12-11T23:27:48.702Z,0.00
2023-12-11T23:32:48.862Z,0.00
2023-12-11T23:37:48.710Z,0.00
2023-12-11T23:42:48.489Z,0.00
2023-12-11T23:47:48.477Z,0.00
2023-12-11T23:52:48.356Z,0.00
2023-12-11T23:57:48.366Z,0.00
